sensor_id;sensor_type;location;lat;lon;timestamp;pressure;altitude;pressure_sealevel;temperature;humidity
73338;BME280;61575;49.908;35.556;2023-09-07T00:01:32;99634.78;;;15.74;75.26
73338;BME280;61575;49.908;35.556;2023-09-07T00:04:36;99634.59;;;15.76;75.34
73338;BME280;61575;49.908;35.556;2023-09-07T00:07:38;99635.22;;;15.78;75.10
73338;BME280;61575;49.908;35.556;2023-09-07T00:10:40;99638.13;;;15.76;75.31
73338;BME280;61575;49.908;35.556;2023-09-07T00:13:42;99642.53;;;15.77;75.02
73338;BME280;61575;49.908;35.556;2023-09-07T00:16:44;99647.09;;;15.77;74.93
73338;BME280;61575;49.908;35.556;2023-09-07T00:19:46;99652.69;;;15.68;75.95
73338;BME280;61575;49.908;35.556;2023-09-07T00:22:50;99646.66;;;15.73;75.51
73338;BME280;61575;49.908;35.556;2023-09-07T00:25:52;99649.38;;;15.73;75.44
73338;BME280;61575;49.908;35.556;2023-09-07T00:28:54;99647.25;;;15.68;75.69
73338;BME280;61575;49.908;35.556;2023-09-07T00:31:56;99647.25;;;15.68;75.87
73338;BME280;61575;49.908;35.556;2023-09-07T00:34:58;99643.31;;;15.71;75.57
73338;BME280;61575;49.908;35.556;2023-09-07T00:38:00;99641.66;;;15.70;75.63
73338;BME280;61575;49.908;35.556;2023-09-07T00:41:02;99642.88;;;15.67;75.61
73338;BME280;61575;49.908;35.556;2023-09-07T00:44:04;99640.38;;;15.66;75.83
73338;BME280;61575;49.908;35.556;2023-09-07T00:47:06;99637.88;;;15.64;75.85
73338;BME280;61575;49.908;35.556;2023-09-07T00:50:08;99644.31;;;15.63;75.96
73338;BME280;61575;49.908;35.556;2023-09-07T00:53:11;99642.00;;;15.60;77.12
73338;BME280;61575;49.908;35.556;2023-09-07T00:56:13;99637.22;;;15.62;75.99
73338;BME280;61575;49.908;35.556;2023-09-07T00:59:16;99642.44;;;15.64;75.91
73338;BME280;61575;49.908;35.556;2023-09-07T01:02:17;99640.34;;;15.59;76.35
73338;BME280;61575;49.908;35.556;2023-09-07T01:05:24;99650.97;;;15.61;76.20
73338;BME280;61575;49.908;35.556;2023-09-07T01:08:42;99644.72;;;15.60;76.35
73338;BME280;61575;49.908;35.556;2023-09-07T01:11:46;99642.59;;;15.56;76.21
73338;BME280;61575;49.908;35.556;2023-09-07T01:14:48;99641.94;;;15.54;76.37
73338;BME280;61575;49.908;35.556;2023-09-07T01:17:50;99641.50;;;15.50;76.45
73338;BME280;61575;49.908;35.556;2023-09-07T01:20:54;99643.75;;;15.47;76.52
73338;BME280;61575;49.908;35.556;2023-09-07T01:23:57;99650.63;;;15.42;76.70
73338;BME280;61575;49.908;35.556;2023-09-07T01:27:01;99644.31;;;15.35;77.04
73338;BME280;61575;49.908;35.556;2023-09-07T01:30:03;99648.06;;;15.34;76.96
73338;BME280;61575;49.908;35.556;2023-09-07T01:33:05;99646.78;;;15.30;77.13
73338;BME280;61575;49.908;35.556;2023-09-07T01:36:07;99646.34;;;15.27;77.10
73338;BME280;61575;49.908;35.556;2023-09-07T01:39:10;99652.78;;;15.26;77.05
73338;BME280;61575;49.908;35.556;2023-09-07T01:42:12;99653.38;;;15.21;76.97
73338;BME280;61575;49.908;35.556;2023-09-07T01:45:14;99651.66;;;15.14;77.42
73338;BME280;61575;49.908;35.556;2023-09-07T01:48:16;99654.53;;;15.12;77.22
73338;BME280;61575;49.908;35.556;2023-09-07T01:51:18;99661.19;;;15.09;77.26
73338;BME280;61575;49.908;35.556;2023-09-07T01:54:21;99656.16;;;15.06;77.41
73338;BME280;61575;49.908;35.556;2023-09-07T01:57:23;99660.09;;;15.04;77.69
73338;BME280;61575;49.908;35.556;2023-09-07T02:00:25;99664.03;;;15.01;77.75
73338;BME280;61575;49.908;35.556;2023-09-07T02:03:27;99671.50;;;14.99;77.68
73338;BME280;61575;49.908;35.556;2023-09-07T02:06:30;99669.19;;;14.96;77.98
73338;BME280;61575;49.908;35.556;2023-09-07T02:09:32;99667.72;;;14.94;78.05
73338;BME280;61575;49.908;35.556;2023-09-07T02:12:34;99668.75;;;14.93;78.04
73338;BME280;61575;49.908;35.556;2023-09-07T02:15:39;99662.31;;;14.94;78.33
73338;BME280;61575;49.908;35.556;2023-09-07T02:18:42;99661.66;;;14.92;78.24
73338;BME280;61575;49.908;35.556;2023-09-07T02:21:50;99660.19;;;14.89;78.45
73338;BME280;61575;49.908;35.556;2023-09-07T02:24:54;99658.69;;;14.87;78.34
73338;BME280;61575;49.908;35.556;2023-09-07T02:27:56;99671.19;;;14.88;78.48
73338;BME280;61575;49.908;35.556;2023-09-07T02:31:05;99668.22;;;14.83;78.85
73338;BME280;61575;49.908;35.556;2023-09-07T02:34:07;99672.78;;;14.82;78.75
73338;BME280;61575;49.908;35.556;2023-09-07T02:37:10;99670.94;;;14.83;78.88
73338;BME280;61575;49.908;35.556;2023-09-07T02:40:12;99674.22;;;14.78;79.18
73338;BME280;61575;49.908;35.556;2023-09-07T02:43:13;99670.69;;;14.77;79.13
73338;BME280;61575;49.908;35.556;2023-09-07T02:46:15;99682.91;;;14.73;79.33
73338;BME280;61575;49.908;35.556;2023-09-07T02:49:18;99679.94;;;14.68;79.67
73338;BME280;61575;49.908;35.556;2023-09-07T02:52:20;99684.31;;;14.69;79.27
73338;BME280;61575;49.908;35.556;2023-09-07T02:55:22;99687.59;;;14.65;79.73
73338;BME280;61575;49.908;35.556;2023-09-07T02:58:25;99694.88;;;14.64;79.83
73338;BME280;61575;49.908;35.556;2023-09-07T03:01:28;99690.63;;;14.55;80.97
73338;BME280;61575;49.908;35.556;2023-09-07T03:04:30;99701.44;;;14.55;80.35
73338;BME280;61575;49.908;35.556;2023-09-07T03:07:33;99704.78;;;14.57;79.96
73338;BME280;61575;49.908;35.556;2023-09-07T03:10:36;99709.34;;;14.57;79.92
73338;BME280;61575;49.908;35.556;2023-09-07T03:13:40;99705.81;;;14.56;80.14
73338;BME280;61575;49.908;35.556;2023-09-07T03:16:42;99707.66;;;14.56;80.13
73338;BME280;61575;49.908;35.556;2023-09-07T03:19:44;99717.63;;;14.55;80.29
73338;BME280;61575;49.908;35.556;2023-09-07T03:22:46;99722.16;;;14.48;81.14
73338;BME280;61575;49.908;35.556;2023-09-07T03:25:49;99714.69;;;14.50;80.97
73338;BME280;61575;49.908;35.556;2023-09-07T03:28:52;99729.66;;;14.53;81.10
73338;BME280;61575;49.908;35.556;2023-09-07T03:31:54;99725.09;;;14.53;81.03
73338;BME280;61575;49.908;35.556;2023-09-07T03:34:56;99738.44;;;14.55;80.96
73338;BME280;61575;49.908;35.556;2023-09-07T03:37:58;99736.56;;;14.55;80.95
73338;BME280;61575;49.908;35.556;2023-09-07T03:41:01;99741.72;;;14.50;81.81
73338;BME280;61575;49.908;35.556;2023-09-07T03:44:03;99742.63;;;14.57;81.37
73338;BME280;61575;49.908;35.556;2023-09-07T03:47:05;99741.78;;;14.57;81.94
73338;BME280;61575;49.908;35.556;2023-09-07T03:50:08;99744.47;;;14.57;82.19
73338;BME280;61575;49.908;35.556;2023-09-07T03:53:10;99746.50;;;14.69;81.88
73338;BME280;61575;49.908;35.556;2023-09-07T03:56:12;99742.00;;;14.76;81.69
73338;BME280;61575;49.908;35.556;2023-09-07T03:59:15;99739.19;;;14.85;81.54
73338;BME280;61575;49.908;35.556;2023-09-07T04:02:17;99749.28;;;14.97;81.15
73338;BME280;61575;49.908;35.556;2023-09-07T04:05:22;99751.28;;;15.10;80.99
73338;BME280;61575;49.908;35.556;2023-09-07T04:08:25;99756.19;;;15.21;80.83
73338;BME280;61575;49.908;35.556;2023-09-07T04:11:27;99750.88;;;15.34;80.53
73338;BME280;61575;49.908;35.556;2023-09-07T04:14:29;99764.91;;;15.45;80.69
73338;BME280;61575;49.908;35.556;2023-09-07T04:17:32;99757.00;;;15.64;80.22
73338;BME280;61575;49.908;35.556;2023-09-07T04:20:42;99758.31;;;15.75;79.92
73338;BME280;61575;49.908;35.556;2023-09-07T04:23:46;99760.69;;;15.85;79.78
73338;BME280;61575;49.908;35.556;2023-09-07T04:26:48;99765.78;;;16.01;79.04
73338;BME280;61575;49.908;35.556;2023-09-07T04:29:51;99775.22;;;16.12;78.96
73338;BME280;61575;49.908;35.556;2023-09-07T04:32:53;99775.69;;;16.22;78.53
73338;BME280;61575;49.908;35.556;2023-09-07T04:35:55;99777.81;;;16.26;78.26
73338;BME280;61575;49.908;35.556;2023-09-07T04:38:57;99778.31;;;16.43;77.48
73338;BME280;61575;49.908;35.556;2023-09-07T04:41:59;99776.66;;;16.49;77.41
73338;BME280;61575;49.908;35.556;2023-09-07T04:45:01;99793.22;;;16.60;76.82
73338;BME280;61575;49.908;35.556;2023-09-07T04:48:03;99795.88;;;16.54;76.98
73338;BME280;61575;49.908;35.556;2023-09-07T04:51:05;99796.03;;;16.46;77.10
73338;BME280;61575;49.908;35.556;2023-09-07T04:54:08;99801.88;;;16.43;76.88
73338;BME280;61575;49.908;35.556;2023-09-07T04:57:11;99804.97;;;16.39;76.85
73338;BME280;61575;49.908;35.556;2023-09-07T05:00:12;99808.13;;;16.43;77.08
73338;BME280;61575;49.908;35.556;2023-09-07T05:03:15;99813.94;;;16.40;76.82
73338;BME280;61575;49.908;35.556;2023-09-07T05:06:17;99816.38;;;16.56;76.34
73338;BME280;61575;49.908;35.556;2023-09-07T05:09:19;99821.66;;;16.71;75.46
73338;BME280;61575;49.908;35.556;2023-09-07T05:12:22;99820.69;;;16.92;74.67
73338;BME280;61575;49.908;35.556;2023-09-07T05:15:24;99823.03;;;17.08;73.97
73338;BME280;61575;49.908;35.556;2023-09-07T05:18:26;99818.25;;;17.23;73.02
73338;BME280;61575;49.908;35.556;2023-09-07T05:21:28;99824.97;;;17.34;72.38
73338;BME280;61575;49.908;35.556;2023-09-07T05:24:30;99821.22;;;17.48;72.09
73338;BME280;61575;49.908;35.556;2023-09-07T05:27:34;99820.22;;;17.69;71.27
73338;BME280;61575;49.908;35.556;2023-09-07T05:30:37;99828.16;;;17.97;70.32
73338;BME280;61575;49.908;35.556;2023-09-07T05:33:39;99824.78;;;18.21;69.49
73338;BME280;61575;49.908;35.556;2023-09-07T05:36:41;99825.59;;;18.35;68.70
73338;BME280;61575;49.908;35.556;2023-09-07T05:39:43;99826.97;;;18.71;67.46
73338;BME280;61575;49.908;35.556;2023-09-07T05:42:45;99829.75;;;18.57;65.84
73338;BME280;61575;49.908;35.556;2023-09-07T05:45:47;99831.59;;;18.63;65.73
73338;BME280;61575;49.908;35.556;2023-09-07T05:48:50;99836.00;;;18.65;65.31
73338;BME280;61575;49.908;35.556;2023-09-07T05:51:52;99835.38;;;18.62;65.24
73338;BME280;61575;49.908;35.556;2023-09-07T05:54:54;99845.81;;;18.66;64.93
73338;BME280;61575;49.908;35.556;2023-09-07T05:57:57;99834.03;;;18.85;64.83
73338;BME280;61575;49.908;35.556;2023-09-07T06:01:01;99843.81;;;18.99;64.34
73338;BME280;61575;49.908;35.556;2023-09-07T06:04:03;99841.56;;;19.27;63.28
73338;BME280;61575;49.908;35.556;2023-09-07T06:07:05;99844.16;;;19.54;61.50
73338;BME280;61575;49.908;35.556;2023-09-07T06:10:07;99851.03;;;19.81;61.75
73338;BME280;61575;49.908;35.556;2023-09-07T06:13:09;99860.84;;;20.14;60.92
73338;BME280;61575;49.908;35.556;2023-09-07T06:16:11;99849.69;;;20.40;59.83
73338;BME280;61575;49.908;35.556;2023-09-07T06:19:13;99845.13;;;20.34;59.60
73338;BME280;61575;49.908;35.556;2023-09-07T06:22:15;99857.66;;;20.42;58.22
73338;BME280;61575;49.908;35.556;2023-09-07T06:25:17;99853.34;;;20.52;57.89
73338;BME280;61575;49.908;35.556;2023-09-07T06:28:20;99851.50;;;20.65;57.29
73338;BME280;61575;49.908;35.556;2023-09-07T06:31:22;99851.81;;;20.75;56.98
73338;BME280;61575;49.908;35.556;2023-09-07T06:34:25;99842.41;;;20.89;57.07
73338;BME280;61575;49.908;35.556;2023-09-07T06:37:27;99848.47;;;21.09;56.64
73338;BME280;61575;49.908;35.556;2023-09-07T06:40:30;99847.59;;;21.27;55.29
73338;BME280;61575;49.908;35.556;2023-09-07T06:43:32;99849.78;;;21.37;55.09
73338;BME280;61575;49.908;35.556;2023-09-07T06:46:34;99850.78;;;21.54;54.29
73338;BME280;61575;49.908;35.556;2023-09-07T06:49:40;99842.56;;;21.84;54.29
73338;BME280;61575;49.908;35.556;2023-09-07T06:52:42;99856.25;;;21.96;53.23
73338;BME280;61575;49.908;35.556;2023-09-07T06:55:44;99856.00;;;21.97;51.94
73338;BME280;61575;49.908;35.556;2023-09-07T06:58:46;99851.50;;;22.14;50.46
73338;BME280;61575;49.908;35.556;2023-09-07T07:01:48;99862.81;;;22.41;50.75
73338;BME280;61575;49.908;35.556;2023-09-07T07:04:51;99861.38;;;22.74;50.45
73338;BME280;61575;49.908;35.556;2023-09-07T07:07:53;99862.41;;;22.85;48.84
73338;BME280;61575;49.908;35.556;2023-09-07T07:10:56;99860.28;;;22.87;47.31
73338;BME280;61575;49.908;35.556;2023-09-07T07:13:58;99860.56;;;23.13;48.39
73338;BME280;61575;49.908;35.556;2023-09-07T07:17:01;99863.69;;;23.05;47.60
73338;BME280;61575;49.908;35.556;2023-09-07T07:20:08;99870.97;;;23.40;47.01
73338;BME280;61575;49.908;35.556;2023-09-07T07:23:11;99865.47;;;23.40;45.47
73338;BME280;61575;49.908;35.556;2023-09-07T07:26:14;99868.34;;;23.62;45.34
73338;BME280;61575;49.908;35.556;2023-09-07T07:29:16;99865.00;;;23.43;44.91
73338;BME280;61575;49.908;35.556;2023-09-07T07:32:19;99866.94;;;23.31;45.09
73338;BME280;61575;49.908;35.556;2023-09-07T07:35:23;99866.31;;;23.40;44.80
73338;BME280;61575;49.908;35.556;2023-09-07T07:38:25;99873.13;;;23.38;44.03
73338;BME280;61575;49.908;35.556;2023-09-07T07:41:27;99871.66;;;23.47;44.25
73338;BME280;61575;49.908;35.556;2023-09-07T07:44:29;99869.94;;;23.74;43.48
73338;BME280;61575;49.908;35.556;2023-09-07T07:47:32;99872.41;;;24.04;42.88
73338;BME280;61575;49.908;35.556;2023-09-07T07:50:40;99887.91;;;23.82;41.91
73338;BME280;61575;49.908;35.556;2023-09-07T07:53:44;99885.66;;;23.79;42.12
73338;BME280;61575;49.908;35.556;2023-09-07T07:56:46;99875.38;;;23.86;41.65
73338;BME280;61575;49.908;35.556;2023-09-07T07:59:48;99885.22;;;24.16;41.36
73338;BME280;61575;49.908;35.556;2023-09-07T08:02:50;99884.22;;;24.05;40.48
73338;BME280;61575;49.908;35.556;2023-09-07T08:05:52;99887.53;;;24.07;40.65
73338;BME280;61575;49.908;35.556;2023-09-07T08:08:54;99886.13;;;23.88;39.23
73338;BME280;61575;49.908;35.556;2023-09-07T08:11:57;99886.47;;;23.91;39.39
73338;BME280;61575;49.908;35.556;2023-09-07T08:15:00;99881.13;;;24.18;39.68
73338;BME280;61575;49.908;35.556;2023-09-07T08:18:02;99875.38;;;24.36;39.09
73338;BME280;61575;49.908;35.556;2023-09-07T08:21:06;99885.38;;;24.26;38.16
73338;BME280;61575;49.908;35.556;2023-09-07T08:24:08;99884.47;;;24.20;38.46
73338;BME280;61575;49.908;35.556;2023-09-07T08:27:11;99885.72;;;24.29;38.35
73338;BME280;61575;49.908;35.556;2023-09-07T08:30:24;99888.09;;;24.59;37.96
73338;BME280;61575;49.908;35.556;2023-09-07T08:33:27;99879.94;;;24.48;37.84
73338;BME280;61575;49.908;35.556;2023-09-07T08:36:42;99884.94;;;24.51;37.01
73338;BME280;61575;49.908;35.556;2023-09-07T08:39:44;99895.19;;;24.55;36.95
73338;BME280;61575;49.908;35.556;2023-09-07T08:42:46;99890.50;;;24.73;37.03
73338;BME280;61575;49.908;35.556;2023-09-07T08:45:55;99896.75;;;24.68;36.08
73338;BME280;61575;49.908;35.556;2023-09-07T08:49:01;99892.00;;;24.63;36.18
73338;BME280;61575;49.908;35.556;2023-09-07T08:52:05;99898.34;;;24.64;36.26
73338;BME280;61575;49.908;35.556;2023-09-07T08:55:10;99891.63;;;24.98;35.58
73338;BME280;61575;49.908;35.556;2023-09-07T08:58:13;99885.44;;;25.08;35.82
73338;BME280;61575;49.908;35.556;2023-09-07T09:01:16;99889.66;;;25.16;35.55
73338;BME280;61575;49.908;35.556;2023-09-07T09:04:18;99895.78;;;25.45;35.14
73338;BME280;61575;49.908;35.556;2023-09-07T09:07:23;99899.97;;;25.25;33.39
73338;BME280;61575;49.908;35.556;2023-09-07T09:10:25;99899.38;;;25.01;33.15
73338;BME280;61575;49.908;35.556;2023-09-07T09:13:29;99901.13;;;25.29;33.74
73338;BME280;61575;49.908;35.556;2023-09-07T09:16:31;99910.69;;;25.27;33.11
73338;BME280;61575;49.908;35.556;2023-09-07T09:19:33;99919.63;;;25.17;32.65
73338;BME280;61575;49.908;35.556;2023-09-07T09:22:36;99906.34;;;25.31;32.40
73338;BME280;61575;49.908;35.556;2023-09-07T09:25:40;99911.78;;;25.26;30.89
73338;BME280;61575;49.908;35.556;2023-09-07T09:28:42;99916.84;;;25.34;32.30
73338;BME280;61575;49.908;35.556;2023-09-07T09:31:47;99920.63;;;25.28;30.91
73338;BME280;61575;49.908;35.556;2023-09-07T09:34:49;99922.88;;;25.14;30.99
73338;BME280;61575;49.908;35.556;2023-09-07T09:37:52;99921.53;;;25.17;30.48
73338;BME280;61575;49.908;35.556;2023-09-07T09:40:54;99931.75;;;24.99;28.61
73338;BME280;61575;49.908;35.556;2023-09-07T09:43:57;99931.75;;;24.99;30.29
73338;BME280;61575;49.908;35.556;2023-09-07T09:47:00;99919.00;;;25.10;29.18
73338;BME280;61575;49.908;35.556;2023-09-07T09:50:02;99922.06;;;25.14;29.37
73338;BME280;61575;49.908;35.556;2023-09-07T09:53:08;99942.31;;;25.08;27.29
73338;BME280;61575;49.908;35.556;2023-09-07T09:56:10;99926.66;;;24.86;27.64
73338;BME280;61575;49.908;35.556;2023-09-07T09:59:14;99924.22;;;25.12;28.22
73338;BME280;61575;49.908;35.556;2023-09-07T10:02:16;99925.00;;;25.07;27.55
73338;BME280;61575;49.908;35.556;2023-09-07T10:05:19;99927.28;;;25.15;27.67
73338;BME280;61575;49.908;35.556;2023-09-07T10:08:21;99919.94;;;25.21;27.97
73338;BME280;61575;49.908;35.556;2023-09-07T10:11:35;99929.78;;;25.17;27.53
73338;BME280;61575;49.908;35.556;2023-09-07T10:14:40;99928.06;;;25.11;27.52
73338;BME280;61575;49.908;35.556;2023-09-07T10:17:42;99923.91;;;25.08;27.49
73338;BME280;61575;49.908;35.556;2023-09-07T10:20:57;99933.34;;;24.95;27.60
73338;BME280;61575;49.908;35.556;2023-09-07T10:24:00;99924.81;;;25.14;28.00
73338;BME280;61575;49.908;35.556;2023-09-07T10:27:06;99914.63;;;25.14;27.42
73338;BME280;61575;49.908;35.556;2023-09-07T10:30:12;99930.34;;;24.97;26.75
73338;BME280;61575;49.908;35.556;2023-09-07T10:33:21;99926.59;;;24.81;27.59
73338;BME280;61575;49.908;35.556;2023-09-07T10:36:27;99924.75;;;24.87;27.57
73338;BME280;61575;49.908;35.556;2023-09-07T10:39:31;99925.03;;;24.68;27.60
73338;BME280;61575;49.908;35.556;2023-09-07T10:42:33;99923.28;;;24.79;27.64
73338;BME280;61575;49.908;35.556;2023-09-07T10:45:36;99928.28;;;24.49;26.41
73338;BME280;61575;49.908;35.556;2023-09-07T10:48:38;99928.97;;;24.56;26.53
73338;BME280;61575;49.908;35.556;2023-09-07T10:51:40;99925.38;;;24.38;27.34
73338;BME280;61575;49.908;35.556;2023-09-07T10:54:43;99928.28;;;24.32;27.70
73338;BME280;61575;49.908;35.556;2023-09-07T10:57:46;99936.13;;;24.40;27.39
73338;BME280;61575;49.908;35.556;2023-09-07T11:00:49;99930.13;;;24.43;26.43
73338;BME280;61575;49.908;35.556;2023-09-07T11:03:50;99936.94;;;24.40;26.47
73338;BME280;61575;49.908;35.556;2023-09-07T11:06:53;99926.13;;;24.34;26.26
73338;BME280;61575;49.908;35.556;2023-09-07T11:09:55;99937.44;;;24.04;24.93
73338;BME280;61575;49.908;35.556;2023-09-07T11:12:56;99938.53;;;24.20;26.20
73338;BME280;61575;49.908;35.556;2023-09-07T11:15:59;99931.63;;;24.17;26.42
73338;BME280;61575;49.908;35.556;2023-09-07T11:19:05;99931.13;;;24.03;25.69
73338;BME280;61575;49.908;35.556;2023-09-07T11:22:11;99933.13;;;24.08;26.61
73338;BME280;61575;49.908;35.556;2023-09-07T11:25:14;99939.25;;;23.98;25.50
73338;BME280;61575;49.908;35.556;2023-09-07T11:28:18;99933.22;;;23.85;26.07
73338;BME280;61575;49.908;35.556;2023-09-07T11:31:20;99926.63;;;23.97;26.36
73338;BME280;61575;49.908;35.556;2023-09-07T11:34:23;99925.69;;;23.92;26.30
73338;BME280;61575;49.908;35.556;2023-09-07T11:37:26;99928.47;;;23.80;25.86
73338;BME280;61575;49.908;35.556;2023-09-07T11:40:28;99931.47;;;23.79;26.36
73338;BME280;61575;49.908;35.556;2023-09-07T11:43:30;99929.31;;;23.81;26.66
73338;BME280;61575;49.908;35.556;2023-09-07T11:46:33;99933.13;;;23.80;27.18
73338;BME280;61575;49.908;35.556;2023-09-07T11:49:35;99931.50;;;23.67;27.32
73338;BME280;61575;49.908;35.556;2023-09-07T11:52:37;99926.75;;;23.62;27.29
73338;BME280;61575;49.908;35.556;2023-09-07T11:55:39;99934.00;;;23.68;27.44
73338;BME280;61575;49.908;35.556;2023-09-07T11:58:42;99932.06;;;23.52;27.01
73338;BME280;61575;49.908;35.556;2023-09-07T12:01:45;99932.16;;;23.57;27.45
73338;BME280;61575;49.908;35.556;2023-09-07T12:04:48;99925.50;;;23.53;27.46
73338;BME280;61575;49.908;35.556;2023-09-07T12:07:50;99931.50;;;23.67;27.70
73338;BME280;61575;49.908;35.556;2023-09-07T12:10:54;99923.72;;;23.75;27.24
73338;BME280;61575;49.908;35.556;2023-09-07T12:13:56;99923.91;;;23.86;26.95
73338;BME280;61575;49.908;35.556;2023-09-07T12:16:58;99934.50;;;23.65;26.36
73338;BME280;61575;49.908;35.556;2023-09-07T12:20:02;99938.22;;;23.59;26.63
73338;BME280;61575;49.908;35.556;2023-09-07T12:23:05;99925.94;;;23.62;26.68
73338;BME280;61575;49.908;35.556;2023-09-07T12:26:07;99935.34;;;23.66;26.85
73338;BME280;61575;49.908;35.556;2023-09-07T12:29:10;99944.38;;;23.66;27.01
73338;BME280;61575;49.908;35.556;2023-09-07T12:32:12;99933.75;;;23.70;26.96
73338;BME280;61575;49.908;35.556;2023-09-07T12:35:14;99938.66;;;23.68;27.22
73338;BME280;61575;49.908;35.556;2023-09-07T12:38:17;99931.03;;;23.70;26.93
73338;BME280;61575;49.908;35.556;2023-09-07T12:41:21;99929.84;;;23.66;26.78
73338;BME280;61575;49.908;35.556;2023-09-07T12:44:23;99929.31;;;23.52;26.66
73338;BME280;61575;49.908;35.556;2023-09-07T12:47:25;99928.03;;;23.43;26.98
73338;BME280;61575;49.908;35.556;2023-09-07T12:50:27;99929.34;;;23.40;27.18
73338;BME280;61575;49.908;35.556;2023-09-07T12:53:29;99930.38;;;23.11;26.79
73338;BME280;61575;49.908;35.556;2023-09-07T12:56:32;99934.44;;;22.97;26.72
73338;BME280;61575;49.908;35.556;2023-09-07T12:59:34;99935.53;;;22.84;27.52
73338;BME280;61575;49.908;35.556;2023-09-07T13:02:36;99936.38;;;22.73;28.27
73338;BME280;61575;49.908;35.556;2023-09-07T13:05:38;99934.59;;;22.55;28.26
73338;BME280;61575;49.908;35.556;2023-09-07T13:08:40;99944.00;;;22.59;28.05
73338;BME280;61575;49.908;35.556;2023-09-07T13:11:42;99944.94;;;22.53;28.27
73338;BME280;61575;49.908;35.556;2023-09-07T13:14:44;99948.88;;;22.45;28.36
73338;BME280;61575;49.908;35.556;2023-09-07T13:17:46;99949.66;;;22.34;28.58
73338;BME280;61575;49.908;35.556;2023-09-07T13:20:48;99940.72;;;22.27;28.94
73338;BME280;61575;49.908;35.556;2023-09-07T13:23:51;99947.34;;;21.96;28.65
73338;BME280;61575;49.908;35.556;2023-09-07T13:26:53;99947.69;;;22.00;28.95
73338;BME280;61575;49.908;35.556;2023-09-07T13:29:55;99945.53;;;21.90;29.09
73338;BME280;61575;49.908;35.556;2023-09-07T13:32:58;99928.25;;;21.78;29.21
73338;BME280;61575;49.908;35.556;2023-09-07T13:36:01;99945.63;;;21.83;29.65
73338;BME280;61575;49.908;35.556;2023-09-07T13:39:04;99936.78;;;21.70;29.93
73338;BME280;61575;49.908;35.556;2023-09-07T13:42:06;99941.84;;;21.66;29.62
73338;BME280;61575;49.908;35.556;2023-09-07T13:45:08;99929.72;;;21.62;29.71
73338;BME280;61575;49.908;35.556;2023-09-07T13:48:10;99936.94;;;21.57;29.69
73338;BME280;61575;49.908;35.556;2023-09-07T13:51:13;99932.78;;;21.54;29.79
73338;BME280;61575;49.908;35.556;2023-09-07T13:54:15;99937.50;;;21.47;29.24
73338;BME280;61575;49.908;35.556;2023-09-07T13:57:16;99932.50;;;21.44;29.36
73338;BME280;61575;49.908;35.556;2023-09-07T14:00:18;99934.91;;;21.52;29.42
73338;BME280;61575;49.908;35.556;2023-09-07T14:03:20;99926.47;;;21.53;29.03
73338;BME280;61575;49.908;35.556;2023-09-07T14:06:23;99929.34;;;21.59;29.33
73338;BME280;61575;49.908;35.556;2023-09-07T14:09:25;99929.94;;;21.61;29.17
73338;BME280;61575;49.908;35.556;2023-09-07T14:12:27;99929.31;;;21.77;29.18
73338;BME280;61575;49.908;35.556;2023-09-07T14:15:29;99928.25;;;21.78;29.21
73338;BME280;61575;49.908;35.556;2023-09-07T14:18:32;99928.75;;;21.87;29.22
73338;BME280;61575;49.908;35.556;2023-09-07T14:21:34;99931.22;;;21.76;29.32
73338;BME280;61575;49.908;35.556;2023-09-07T14:24:36;99931.97;;;21.83;28.83
73338;BME280;61575;49.908;35.556;2023-09-07T14:27:38;99935.28;;;21.86;29.00
73338;BME280;61575;49.908;35.556;2023-09-07T14:30:40;99930.69;;;21.98;29.33
73338;BME280;61575;49.908;35.556;2023-09-07T14:33:42;99932.22;;;21.94;28.92
73338;BME280;61575;49.908;35.556;2023-09-07T14:36:44;99935.53;;;21.84;28.65
73338;BME280;61575;49.908;35.556;2023-09-07T14:39:46;99940.91;;;21.91;28.63
73338;BME280;61575;49.908;35.556;2023-09-07T14:42:51;99949.84;;;21.98;29.20
73338;BME280;61575;49.908;35.556;2023-09-07T14:45:53;99944.56;;;21.84;28.47
73338;BME280;61575;49.908;35.556;2023-09-07T14:48:55;99945.25;;;21.80;28.68
73338;BME280;61575;49.908;35.556;2023-09-07T14:51:57;99938.25;;;21.84;28.83
73338;BME280;61575;49.908;35.556;2023-09-07T14:55:00;99950.81;;;21.73;28.92
73338;BME280;61575;49.908;35.556;2023-09-07T14:58:02;99949.91;;;21.61;28.78
73338;BME280;61575;49.908;35.556;2023-09-07T15:01:08;99952.13;;;21.52;29.46
73338;BME280;61575;49.908;35.556;2023-09-07T15:04:10;99946.94;;;21.33;29.30
73338;BME280;61575;49.908;35.556;2023-09-07T15:07:12;99942.22;;;21.22;29.76
73338;BME280;61575;49.908;35.556;2023-09-07T15:10:14;99950.50;;;21.15;29.97
73338;BME280;61575;49.908;35.556;2023-09-07T15:13:16;99954.91;;;20.98;30.17
73338;BME280;61575;49.908;35.556;2023-09-07T15:16:19;99952.88;;;20.93;30.50
73338;BME280;61575;49.908;35.556;2023-09-07T15:19:22;99952.75;;;20.81;30.87
73338;BME280;61575;49.908;35.556;2023-09-07T15:22:24;99954.16;;;20.66;31.40
73338;BME280;61575;49.908;35.556;2023-09-07T15:25:28;99948.59;;;20.54;31.73
73338;BME280;61575;49.908;35.556;2023-09-07T15:28:29;99952.28;;;20.41;32.22
73338;BME280;61575;49.908;35.556;2023-09-07T15:31:33;99942.38;;;20.22;32.45
73338;BME280;61575;49.908;35.556;2023-09-07T15:34:35;99949.34;;;20.11;32.80
73338;BME280;61575;49.908;35.556;2023-09-07T15:37:37;99952.34;;;20.03;32.82
73338;BME280;61575;49.908;35.556;2023-09-07T15:40:39;99952.88;;;19.87;33.69
73338;BME280;61575;49.908;35.556;2023-09-07T15:43:41;99950.47;;;19.72;33.72
73338;BME280;61575;49.908;35.556;2023-09-07T15:46:43;99950.13;;;19.62;33.66
73338;BME280;61575;49.908;35.556;2023-09-07T15:49:45;99962.34;;;19.53;33.83
73338;BME280;61575;49.908;35.556;2023-09-07T15:52:48;99951.91;;;19.43;33.94
73338;BME280;61575;49.908;35.556;2023-09-07T15:55:51;99960.75;;;19.32;34.03